createdAt,value
2022-07-25T00:01:00.337Z,21.30
2022-07-25T00:05:02.953Z,21.30
2022-07-25T00:09:05.107Z,21.30
2022-07-25T00:13:06.856Z,21.30
2022-07-25T00:17:08.676Z,21.20
2022-07-25T00:21:10.508Z,21.20
2022-07-25T00:25:12.321Z,21.20
2022-07-25T00:29:14.051Z,21.20
2022-07-25T00:33:15.885Z,21.10
2022-07-25T00:37:17.658Z,21.10
2022-07-25T00:41:19.459Z,21.10
2022-07-25T00:45:23.583Z,21.00
2022-07-25T00:49:25.426Z,21.00
2022-07-25T00:53:27.190Z,20.90
2022-07-25T00:57:29.029Z,20.90
2022-07-25T01:01:30.868Z,20.80
2022-07-25T01:05:32.758Z,20.80
2022-07-25T01:09:34.506Z,20.80
2022-07-25T01:13:36.268Z,20.80
2022-07-25T01:17:38.016Z,20.70
2022-07-25T01:21:40.474Z,20.70
2022-07-25T01:25:42.329Z,20.70
2022-07-25T01:29:44.094Z,20.70
2022-07-25T01:33:46.040Z,20.70
2022-07-25T01:37:47.811Z,20.60
2022-07-25T01:41:49.564Z,20.60
2022-07-25T01:45:51.572Z,20.60
2022-07-25T01:49:53.333Z,20.60
2022-07-25T01:53:55.120Z,20.60
2022-07-25T01:57:56.888Z,20.60
2022-07-25T02:01:59.770Z,20.60
2022-07-25T02:06:06.957Z,20.50
2022-07-25T02:10:09.283Z,20.50
2022-07-25T02:14:11.063Z,20.50
2022-07-25T02:18:12.851Z,20.50
2022-07-25T02:22:14.618Z,20.50
2022-07-25T02:26:16.371Z,20.40
2022-07-25T02:30:18.172Z,20.40
2022-07-25T02:34:20.602Z,20.40
2022-07-25T02:38:22.329Z,20.40
2022-07-25T02:42:24.140Z,20.40
2022-07-25T02:46:26.157Z,20.40
2022-07-25T02:50:28.152Z,20.40
2022-07-25T02:54:30.075Z,20.30
2022-07-25T02:58:31.818Z,20.40
2022-07-25T03:02:40.531Z,20.30
2022-07-25T03:06:48.501Z,20.30
2022-07-25T03:10:56.510Z,20.30
2022-07-25T03:15:12.507Z,20.30
2022-07-25T03:19:14.447Z,20.30
2022-07-25T03:23:19.578Z,20.30
2022-07-25T03:27:21.389Z,20.30
2022-07-25T03:31:23.194Z,20.30
2022-07-25T03:35:26.143Z,20.40
2022-07-25T03:39:28.565Z,20.60
2022-07-25T03:43:31.283Z,20.70
2022-07-25T03:47:33.084Z,21.00
2022-07-25T03:51:34.879Z,21.00
2022-07-25T03:55:36.822Z,21.50
2022-07-25T03:59:38.980Z,21.60
2022-07-25T04:03:40.713Z,22.00
2022-07-25T04:07:42.720Z,22.20
2022-07-25T04:11:44.567Z,22.50
2022-07-25T04:15:46.563Z,22.70
2022-07-25T04:19:48.423Z,23.00
2022-07-25T04:23:50.868Z,23.40
2022-07-25T04:27:53.096Z,23.90
2022-07-25T04:31:55.109Z,23.90
2022-07-25T04:35:57.006Z,24.30
2022-07-25T04:39:58.818Z,25.00
2022-07-25T04:44:00.556Z,25.30
2022-07-25T04:48:04.367Z,25.30
2022-07-25T04:52:06.234Z,25.30
2022-07-25T04:56:08.360Z,25.90
2022-07-25T05:00:11.168Z,26.50
2022-07-25T05:04:14.357Z,26.10
2022-07-25T05:08:16.113Z,26.20
2022-07-25T05:12:18.068Z,26.20
2022-07-25T05:16:19.981Z,26.60
2022-07-25T05:20:22.019Z,27.20
2022-07-25T05:24:23.812Z,27.50
2022-07-25T05:28:25.852Z,28.00
2022-07-25T05:32:27.901Z,28.20
2022-07-25T05:36:29.676Z,28.40
2022-07-25T05:40:31.522Z,28.80
2022-07-25T05:44:33.452Z,29.20
2022-07-25T05:48:35.340Z,29.50
2022-07-25T05:52:37.253Z,30.10
2022-07-25T05:56:39.059Z,30.70
2022-07-25T06:00:40.942Z,30.60
2022-07-25T06:04:42.694Z,31.40
2022-07-25T06:08:44.624Z,31.30
2022-07-25T06:12:47.237Z,31.40
2022-07-25T06:16:49.342Z,32.20
2022-07-25T06:20:51.245Z,32.90
2022-07-25T06:24:53.098Z,33.60
2022-07-25T06:28:54.956Z,34.20
2022-07-25T06:32:57.973Z,34.80
2022-07-25T06:36:59.796Z,35.30
2022-07-25T06:41:01.574Z,34.90
2022-07-25T06:45:05.396Z,34.40
2022-07-25T06:49:07.397Z,34.60
2022-07-25T06:53:11.256Z,34.70
2022-07-25T06:57:14.424Z,35.30
2022-07-25T07:01:16.412Z,34.90
2022-07-25T07:05:18.598Z,35.00
2022-07-25T07:09:20.383Z,35.50
2022-07-25T07:13:24.648Z,35.40
2022-07-25T07:17:26.493Z,35.90
2022-07-25T07:21:28.416Z,35.80
2022-07-25T07:25:31.299Z,35.40
2022-07-25T07:29:33.174Z,35.50
2022-07-25T07:33:35.302Z,35.50
2022-07-25T07:37:42.993Z,35.70
2022-07-25T07:41:45.371Z,35.70
2022-07-25T07:45:47.357Z,36.10
2022-07-25T07:49:50.458Z,36.50
2022-07-25T07:54:10.825Z,36.80
2022-07-25T07:58:17.024Z,36.50
2022-07-25T08:02:19.405Z,36.90
2022-07-25T08:06:21.329Z,37.10
2022-07-25T08:10:25.329Z,37.60
2022-07-25T08:14:27.203Z,37.50
2022-07-25T08:18:35.172Z,37.70
2022-07-25T08:22:47.747Z,36.70
2022-07-25T08:26:49.524Z,36.20
2022-07-25T08:30:51.607Z,36.00
2022-07-25T08:34:53.481Z,36.20
2022-07-25T08:38:55.281Z,36.60
2022-07-25T08:42:58.464Z,36.50
2022-07-25T08:47:00.334Z,37.10
2022-07-25T08:51:02.118Z,37.30
2022-07-25T08:55:13.598Z,37.20
2022-07-25T08:59:15.459Z,37.70
2022-07-25T09:03:17.413Z,37.60
2022-07-25T09:07:34.667Z,37.80
2022-07-25T09:11:40.928Z,37.70
2022-07-25T09:15:54.004Z,37.80
2022-07-25T09:19:57.272Z,37.90
2022-07-25T09:24:16.449Z,38.10
2022-07-25T09:28:19.462Z,37.90
2022-07-25T09:32:22.732Z,37.90
2022-07-25T09:36:24.521Z,37.70
2022-07-25T09:40:26.354Z,37.60
2022-07-25T09:44:30.482Z,37.30
2022-07-25T09:48:33.012Z,37.30
2022-07-25T09:52:35.470Z,36.90
2022-07-25T09:56:37.361Z,36.70
2022-07-25T10:00:40.697Z,36.40
2022-07-25T10:05:12.180Z,36.30
2022-07-25T10:09:14.373Z,36.00
2022-07-25T10:13:18.121Z,36.20
2022-07-25T10:17:22.947Z,36.20
2022-07-25T10:21:38.166Z,36.10
2022-07-25T10:25:40.079Z,35.70
2022-07-25T10:29:42.291Z,35.80
2022-07-25T10:33:44.185Z,35.70
2022-07-25T10:37:49.088Z,35.60
2022-07-25T10:42:00.439Z,35.20
2022-07-25T10:46:02.272Z,35.20
2022-07-25T10:50:21.913Z,35.10
2022-07-25T10:54:26.441Z,35.10
2022-07-25T10:58:28.253Z,35.00
2022-07-25T11:02:30.242Z,35.10
2022-07-25T11:06:36.813Z,34.80
2022-07-25T11:10:38.616Z,34.60
2022-07-25T11:14:42.834Z,34.70
2022-07-25T11:18:44.802Z,34.70
2022-07-25T11:22:54.704Z,34.80
2022-07-25T11:26:56.883Z,34.70
2022-07-25T11:31:04.810Z,34.50
2022-07-25T11:35:06.950Z,34.70
2022-07-25T11:39:09.256Z,34.60
2022-07-25T11:43:23.261Z,34.60
2022-07-25T11:47:33.011Z,34.60
2022-07-25T11:51:38.799Z,34.60
2022-07-25T11:55:42.314Z,34.90
2022-07-25T11:59:45.337Z,35.00
2022-07-25T12:03:47.219Z,35.10
2022-07-25T12:07:53.269Z,35.10
2022-07-25T12:12:03.483Z,35.20
2022-07-25T12:16:05.830Z,35.30
2022-07-25T12:20:19.096Z,35.40
2022-07-25T12:24:20.928Z,35.30
2022-07-25T12:28:22.729Z,35.30
2022-07-25T12:32:24.602Z,35.40
2022-07-25T12:36:26.468Z,35.30
2022-07-25T12:40:28.494Z,35.20
2022-07-25T12:44:30.431Z,35.20
2022-07-25T12:48:32.596Z,35.30
2022-07-25T12:52:34.737Z,35.60
2022-07-25T12:56:36.562Z,35.70
2022-07-25T13:00:38.565Z,35.80
2022-07-25T13:04:40.524Z,35.80
2022-07-25T13:08:42.402Z,35.60
2022-07-25T13:12:44.592Z,35.70
2022-07-25T13:16:47.153Z,35.90
2022-07-25T13:20:49.555Z,35.90
2022-07-25T13:24:52.022Z,35.80
2022-07-25T13:28:59.429Z,35.90
2022-07-25T13:33:01.804Z,35.90
2022-07-25T13:37:04.635Z,35.90
2022-07-25T13:41:06.993Z,35.80
2022-07-25T13:45:09.981Z,35.60
2022-07-25T13:49:12.248Z,35.80
2022-07-25T13:53:14.350Z,35.80
2022-07-25T13:57:16.219Z,35.80
2022-07-25T14:01:18.149Z,35.80
2022-07-25T14:05:20.058Z,35.90
2022-07-25T14:09:22.082Z,35.80
2022-07-25T14:13:23.962Z,35.70
2022-07-25T14:17:29.817Z,35.80
2022-07-25T14:21:32.235Z,35.60
2022-07-25T14:25:34.580Z,35.50
2022-07-25T14:29:38.068Z,35.50
2022-07-25T14:33:40.600Z,35.70
2022-07-25T14:37:42.585Z,35.60
2022-07-25T14:41:46.089Z,35.80
2022-07-25T14:45:48.022Z,35.70
2022-07-25T14:49:49.896Z,35.60
2022-07-25T14:53:53.435Z,35.70
2022-07-25T14:57:55.366Z,35.50
2022-07-25T15:01:57.200Z,35.60
2022-07-25T15:05:58.988Z,35.60
2022-07-25T15:10:00.835Z,35.70
2022-07-25T15:14:02.638Z,35.60
2022-07-25T15:18:04.614Z,35.50
2022-07-25T15:22:06.454Z,35.30
2022-07-25T15:26:08.425Z,35.30
2022-07-25T15:30:10.952Z,35.20
2022-07-25T15:34:12.784Z,35.10
2022-07-25T15:38:15.890Z,35.20
2022-07-25T15:42:17.802Z,35.10
2022-07-25T15:46:19.606Z,35.10
2022-07-25T15:50:22.036Z,35.10
2022-07-25T15:54:27.710Z,35.10
2022-07-25T15:58:31.625Z,35.10
2022-07-25T16:02:33.424Z,35.10
2022-07-25T16:06:35.361Z,35.00
2022-07-25T16:10:37.302Z,34.90
2022-07-25T16:14:39.147Z,34.90
2022-07-25T16:18:40.936Z,35.00
2022-07-25T16:22:42.882Z,35.20
2022-07-25T16:26:45.026Z,35.40
2022-07-25T16:30:47.019Z,35.40
2022-07-25T16:34:49.479Z,35.40
2022-07-25T16:38:53.428Z,35.40
2022-07-25T16:42:58.716Z,35.30
2022-07-25T16:47:00.597Z,35.30
2022-07-25T16:51:02.639Z,35.20
2022-07-25T16:55:05.457Z,35.10
2022-07-25T16:59:08.261Z,35.00
2022-07-25T17:03:10.302Z,35.10
2022-07-25T17:07:12.408Z,35.10
2022-07-25T17:11:14.378Z,35.00
2022-07-25T17:15:23.736Z,34.90
2022-07-25T17:19:30.653Z,34.90
2022-07-25T17:23:33.390Z,34.70
2022-07-25T17:27:43.127Z,34.70
2022-07-25T17:31:47.982Z,34.60
2022-07-25T17:35:51.821Z,34.60
2022-07-25T17:39:56.344Z,34.50
2022-07-25T17:43:58.821Z,34.40
2022-07-25T17:48:03.071Z,34.20
2022-07-25T17:52:05.705Z,34.10
2022-07-25T17:56:08.776Z,33.90
2022-07-25T18:00:15.165Z,33.80
2022-07-25T18:04:20.959Z,33.60
2022-07-25T18:08:25.944Z,33.50
2022-07-25T18:12:31.282Z,33.40
2022-07-25T18:16:33.578Z,32.30
2022-07-25T18:20:35.549Z,31.20
2022-07-25T18:24:38.774Z,30.80
2022-07-25T18:28:40.723Z,30.40
2022-07-25T18:32:43.040Z,30.20
2022-07-25T18:36:44.982Z,30.00
2022-07-25T18:40:46.769Z,29.90
2022-07-25T18:44:48.936Z,29.60
2022-07-25T18:48:51.473Z,29.50
2022-07-25T18:52:56.743Z,29.50
2022-07-25T18:56:58.724Z,29.30
2022-07-25T19:01:10.310Z,29.20
2022-07-25T19:05:12.377Z,29.10
2022-07-25T19:09:16.627Z,29.10
2022-07-25T19:13:46.577Z,29.00
2022-07-25T19:17:43.104Z,28.90
2022-07-25T19:21:47.986Z,28.70
2022-07-25T19:25:55.353Z,28.40
2022-07-25T19:29:57.347Z,28.40
2022-07-25T19:33:59.214Z,28.40
2022-07-25T19:38:01.180Z,28.50
2022-07-25T19:42:07.454Z,28.60
2022-07-25T19:46:09.359Z,28.50
2022-07-25T19:50:11.412Z,28.60
2022-07-25T19:54:13.430Z,28.60
2022-07-25T19:58:15.849Z,28.50
2022-07-25T20:02:17.814Z,28.40
2022-07-25T20:06:39.673Z,28.30
2022-07-25T20:10:41.440Z,28.30
2022-07-25T20:14:43.509Z,28.30
2022-07-25T20:18:45.401Z,28.30
2022-07-25T20:22:48.071Z,28.20
2022-07-25T20:26:52.935Z,27.90
2022-07-25T20:30:56.029Z,27.60
2022-07-25T20:34:57.921Z,27.40
2022-07-25T20:38:59.785Z,27.20
2022-07-25T20:43:04.048Z,27.20
2022-07-25T20:47:06.004Z,27.10
2022-07-25T20:51:07.863Z,27.10
2022-07-25T20:55:09.881Z,27.00
2022-07-25T20:59:11.976Z,26.90
2022-07-25T21:03:13.844Z,26.90
2022-07-25T21:07:16.883Z,26.90
2022-07-25T21:11:18.825Z,26.70
2022-07-25T21:15:20.651Z,26.50
2022-07-25T21:19:22.419Z,26.40
2022-07-25T21:23:26.473Z,26.40
2022-07-25T21:27:28.310Z,26.30
2022-07-25T21:31:30.151Z,26.20
2022-07-25T21:35:31.946Z,26.30
2022-07-25T21:39:51.148Z,26.30
2022-07-25T21:43:52.997Z,26.40
2022-07-25T21:47:54.854Z,26.30
2022-07-25T21:51:56.774Z,26.20
2022-07-25T21:55:59.995Z,26.00
2022-07-25T22:00:01.766Z,25.90
2022-07-25T22:04:04.193Z,25.60
2022-07-25T22:08:06.160Z,25.60
2022-07-25T22:12:08.511Z,25.70
2022-07-25T22:16:10.438Z,25.80
2022-07-25T22:20:12.719Z,25.80
2022-07-25T22:24:14.448Z,25.60
2022-07-25T22:28:16.329Z,25.40
2022-07-25T22:32:18.076Z,25.30
2022-07-25T22:36:19.858Z,25.30
2022-07-25T22:40:21.704Z,25.20
2022-07-25T22:44:23.571Z,25.20
2022-07-25T22:48:25.324Z,25.20
2022-07-25T22:52:29.412Z,25.10
2022-07-25T22:56:31.329Z,25.00
2022-07-25T23:00:33.100Z,25.00
2022-07-25T23:04:35.060Z,24.90
2022-07-25T23:08:36.916Z,24.80
2022-07-25T23:12:38.948Z,24.70
2022-07-25T23:16:40.829Z,24.60
2022-07-25T23:20:42.761Z,24.40
2022-07-25T23:24:44.688Z,24.40
2022-07-25T23:28:46.463Z,24.30
2022-07-25T23:32:48.303Z,24.20
2022-07-25T23:36:50.099Z,24.10
2022-07-25T23:40:54.092Z,24.00
2022-07-25T23:44:55.875Z,23.90
2022-07-25T23:48:58.851Z,23.90
2022-07-25T23:53:00.762Z,23.80
2022-07-25T23:57:02.639Z,23.80
